sensor_id;sensor_type;location;lat;lon;timestamp;P1;durP1;ratioP1;P2;durP2;ratioP2
31114;SDS011;17764;47.152;9.828;2022-12-18T00:02:06;12.80;;;7.13;;
31114;SDS011;17764;47.152;9.828;2022-12-18T00:04:36;12.20;;;6.63;;
31114;SDS011;17764;47.152;9.828;2022-12-18T00:07:02;11.73;;;6.73;;
31114;SDS011;17764;47.152;9.828;2022-12-18T00:09:28;11.57;;;6.77;;
31114;SDS011;17764;47.152;9.828;2022-12-18T00:11:54;7.73;;;4.90;;
31114;SDS011;17764;47.152;9.828;2022-12-18T00:14:20;9.10;;;5.30;;
31114;SDS011;17764;47.152;9.828;2022-12-18T00:16:46;8.33;;;5.17;;
31114;SDS011;17764;47.152;9.828;2022-12-18T00:19:13;9.67;;;5.67;;
31114;SDS011;17764;47.152;9.828;2022-12-18T00:21:39;7.10;;;4.90;;
31114;SDS011;17764;47.152;9.828;2022-12-18T00:24:06;6.67;;;4.20;;
31114;SDS011;17764;47.152;9.828;2022-12-18T00:26:33;7.57;;;4.97;;
31114;SDS011;17764;47.152;9.828;2022-12-18T00:29:00;7.67;;;5.03;;
31114;SDS011;17764;47.152;9.828;2022-12-18T00:31:26;7.73;;;5.20;;
31114;SDS011;17764;47.152;9.828;2022-12-18T00:33:53;7.57;;;4.63;;
31114;SDS011;17764;47.152;9.828;2022-12-18T00:36:21;6.90;;;4.13;;
31114;SDS011;17764;47.152;9.828;2022-12-18T00:38:48;7.37;;;4.53;;
31114;SDS011;17764;47.152;9.828;2022-12-18T00:41:15;5.67;;;4.03;;
31114;SDS011;17764;47.152;9.828;2022-12-18T00:44:00;4.80;;;3.83;;
31114;SDS011;17764;47.152;9.828;2022-12-18T00:46:26;7.27;;;4.20;;
31114;SDS011;17764;47.152;9.828;2022-12-18T00:48:52;5.90;;;3.93;;
31114;SDS011;17764;47.152;9.828;2022-12-18T00:51:18;6.87;;;4.47;;
31114;SDS011;17764;47.152;9.828;2022-12-18T00:53:44;6.70;;;3.37;;
31114;SDS011;17764;47.152;9.828;2022-12-18T00:56:10;7.13;;;3.83;;
31114;SDS011;17764;47.152;9.828;2022-12-18T00:58:36;4.93;;;3.43;;
31114;SDS011;17764;47.152;9.828;2022-12-18T01:01:03;4.40;;;3.20;;
31114;SDS011;17764;47.152;9.828;2022-12-18T01:03:29;4.07;;;2.77;;
31114;SDS011;17764;47.152;9.828;2022-12-18T01:05:55;5.50;;;3.30;;
31114;SDS011;17764;47.152;9.828;2022-12-18T01:08:21;5.90;;;3.33;;
31114;SDS011;17764;47.152;9.828;2022-12-18T01:10:47;3.07;;;2.47;;
31114;SDS011;17764;47.152;9.828;2022-12-18T01:13:13;5.13;;;2.90;;
31114;SDS011;17764;47.152;9.828;2022-12-18T01:15:39;3.90;;;2.70;;
31114;SDS011;17764;47.152;9.828;2022-12-18T01:18:06;3.87;;;2.47;;
31114;SDS011;17764;47.152;9.828;2022-12-18T01:20:32;4.37;;;3.03;;
31114;SDS011;17764;47.152;9.828;2022-12-18T01:22:58;3.73;;;2.57;;
31114;SDS011;17764;47.152;9.828;2022-12-18T01:25:24;4.37;;;2.80;;
31114;SDS011;17764;47.152;9.828;2022-12-18T01:27:50;4.37;;;2.60;;
31114;SDS011;17764;47.152;9.828;2022-12-18T01:30:16;3.97;;;2.87;;
31114;SDS011;17764;47.152;9.828;2022-12-18T01:32:42;5.60;;;2.77;;
31114;SDS011;17764;47.152;9.828;2022-12-18T01:35:08;5.07;;;3.30;;
31114;SDS011;17764;47.152;9.828;2022-12-18T01:37:34;3.63;;;2.73;;
31114;SDS011;17764;47.152;9.828;2022-12-18T01:40:00;4.73;;;3.00;;
31114;SDS011;17764;47.152;9.828;2022-12-18T01:42:26;4.33;;;2.97;;
31114;SDS011;17764;47.152;9.828;2022-12-18T01:47:43;5.73;;;2.90;;
31114;SDS011;17764;47.152;9.828;2022-12-18T01:53:10;9.83;;;4.33;;
31114;SDS011;17764;47.152;9.828;2022-12-18T01:55:43;5.83;;;4.00;;
31114;SDS011;17764;47.152;9.828;2022-12-18T01:58:37;10.20;;;3.87;;
31114;SDS011;17764;47.152;9.828;2022-12-18T02:01:05;5.93;;;4.30;;
31114;SDS011;17764;47.152;9.828;2022-12-18T02:03:31;5.50;;;3.40;;
31114;SDS011;17764;47.152;9.828;2022-12-18T02:06:04;5.83;;;3.57;;
31114;SDS011;17764;47.152;9.828;2022-12-18T02:11:08;4.73;;;3.37;;
31114;SDS011;17764;47.152;9.828;2022-12-18T02:18:56;4.60;;;3.23;;
31114;SDS011;17764;47.152;9.828;2022-12-18T02:23:52;3.53;;;2.30;;
31114;SDS011;17764;47.152;9.828;2022-12-18T02:26:43;1.90;;;1.60;;
31114;SDS011;17764;47.152;9.828;2022-12-18T02:29:10;2.80;;;1.93;;
31114;SDS011;17764;47.152;9.828;2022-12-18T02:31:40;2.80;;;1.70;;
31114;SDS011;17764;47.152;9.828;2022-12-18T02:34:08;3.77;;;2.20;;
31114;SDS011;17764;47.152;9.828;2022-12-18T02:36:34;2.57;;;2.10;;
31114;SDS011;17764;47.152;9.828;2022-12-18T02:39:02;4.53;;;2.60;;
31114;SDS011;17764;47.152;9.828;2022-12-18T02:41:29;3.33;;;1.97;;
31114;SDS011;17764;47.152;9.828;2022-12-18T02:43:58;3.03;;;2.00;;
31114;SDS011;17764;47.152;9.828;2022-12-18T02:46:25;3.03;;;2.20;;
31114;SDS011;17764;47.152;9.828;2022-12-18T02:48:53;3.20;;;1.73;;
31114;SDS011;17764;47.152;9.828;2022-12-18T02:51:25;2.43;;;1.63;;
31114;SDS011;17764;47.152;9.828;2022-12-18T02:53:58;4.27;;;2.50;;
31114;SDS011;17764;47.152;9.828;2022-12-18T02:56:30;3.40;;;2.10;;
31114;SDS011;17764;47.152;9.828;2022-12-18T02:59:00;2.57;;;2.10;;
31114;SDS011;17764;47.152;9.828;2022-12-18T03:01:34;3.33;;;2.13;;
31114;SDS011;17764;47.152;9.828;2022-12-18T03:04:03;2.57;;;2.00;;
31114;SDS011;17764;47.152;9.828;2022-12-18T03:06:32;2.70;;;2.27;;
31114;SDS011;17764;47.152;9.828;2022-12-18T03:08:59;2.30;;;1.87;;
31114;SDS011;17764;47.152;9.828;2022-12-18T03:11:27;2.23;;;1.87;;
31114;SDS011;17764;47.152;9.828;2022-12-18T03:14:12;2.60;;;1.70;;
31114;SDS011;17764;47.152;9.828;2022-12-18T03:16:40;2.83;;;1.80;;
31114;SDS011;17764;47.152;9.828;2022-12-18T03:19:08;2.53;;;1.87;;
31114;SDS011;17764;47.152;9.828;2022-12-18T03:21:55;2.40;;;1.80;;
31114;SDS011;17764;47.152;9.828;2022-12-18T03:24:22;4.70;;;1.50;;
31114;SDS011;17764;47.152;9.828;2022-12-18T03:26:51;1.50;;;1.10;;
31114;SDS011;17764;47.152;9.828;2022-12-18T03:29:20;2.00;;;1.30;;
31114;SDS011;17764;47.152;9.828;2022-12-18T03:31:54;1.40;;;1.30;;
31114;SDS011;17764;47.152;9.828;2022-12-18T03:34:26;1.20;;;1.10;;
31114;SDS011;17764;47.152;9.828;2022-12-18T03:36:55;1.70;;;1.50;;
31114;SDS011;17764;47.152;9.828;2022-12-18T03:39:21;3.07;;;1.87;;
31114;SDS011;17764;47.152;9.828;2022-12-18T03:41:50;3.77;;;2.07;;
31114;SDS011;17764;47.152;9.828;2022-12-18T03:44:29;3.37;;;2.60;;
31114;SDS011;17764;47.152;9.828;2022-12-18T03:47:07;3.60;;;2.57;;
31114;SDS011;17764;47.152;9.828;2022-12-18T03:49:36;3.93;;;2.53;;
31114;SDS011;17764;47.152;9.828;2022-12-18T03:52:05;3.97;;;2.80;;
31114;SDS011;17764;47.152;9.828;2022-12-18T03:54:32;3.73;;;2.93;;
31114;SDS011;17764;47.152;9.828;2022-12-18T03:57:03;4.67;;;2.87;;
31114;SDS011;17764;47.152;9.828;2022-12-18T03:59:30;5.50;;;3.20;;
31114;SDS011;17764;47.152;9.828;2022-12-18T04:01:57;3.87;;;2.67;;
31114;SDS011;17764;47.152;9.828;2022-12-18T04:04:25;5.53;;;2.73;;
31114;SDS011;17764;47.152;9.828;2022-12-18T04:06:51;4.57;;;2.90;;
31114;SDS011;17764;47.152;9.828;2022-12-18T04:09:18;4.30;;;2.70;;
31114;SDS011;17764;47.152;9.828;2022-12-18T04:11:45;4.67;;;2.27;;
31114;SDS011;17764;47.152;9.828;2022-12-18T04:14:11;2.87;;;2.10;;
31114;SDS011;17764;47.152;9.828;2022-12-18T04:16:37;5.73;;;2.30;;
31114;SDS011;17764;47.152;9.828;2022-12-18T04:19:04;3.80;;;2.00;;
31114;SDS011;17764;47.152;9.828;2022-12-18T04:21:30;4.27;;;2.30;;
31114;SDS011;17764;47.152;9.828;2022-12-18T04:23:56;4.07;;;2.40;;
31114;SDS011;17764;47.152;9.828;2022-12-18T04:26:22;3.50;;;2.03;;
31114;SDS011;17764;47.152;9.828;2022-12-18T04:28:48;3.30;;;2.00;;
31114;SDS011;17764;47.152;9.828;2022-12-18T04:31:14;2.03;;;1.60;;
31114;SDS011;17764;47.152;9.828;2022-12-18T04:33:40;2.80;;;1.90;;
31114;SDS011;17764;47.152;9.828;2022-12-18T04:36:06;2.87;;;1.80;;
31114;SDS011;17764;47.152;9.828;2022-12-18T04:38:32;2.87;;;2.17;;
31114;SDS011;17764;47.152;9.828;2022-12-18T04:40:58;2.97;;;2.27;;
31114;SDS011;17764;47.152;9.828;2022-12-18T04:43:24;2.40;;;1.60;;
31114;SDS011;17764;47.152;9.828;2022-12-18T04:45:50;2.87;;;1.90;;
31114;SDS011;17764;47.152;9.828;2022-12-18T04:48:16;3.00;;;1.73;;
31114;SDS011;17764;47.152;9.828;2022-12-18T04:50:42;2.27;;;1.60;;
31114;SDS011;17764;47.152;9.828;2022-12-18T04:53:08;3.67;;;1.53;;
31114;SDS011;17764;47.152;9.828;2022-12-18T04:55:34;2.03;;;1.57;;
31114;SDS011;17764;47.152;9.828;2022-12-18T04:58:00;2.20;;;1.30;;
31114;SDS011;17764;47.152;9.828;2022-12-18T05:00:26;2.20;;;1.40;;
31114;SDS011;17764;47.152;9.828;2022-12-18T05:02:52;2.23;;;1.33;;
31114;SDS011;17764;47.152;9.828;2022-12-18T05:05:18;2.00;;;1.63;;
31114;SDS011;17764;47.152;9.828;2022-12-18T05:07:44;2.87;;;1.53;;
31114;SDS011;17764;47.152;9.828;2022-12-18T05:10:10;1.70;;;1.27;;
31114;SDS011;17764;47.152;9.828;2022-12-18T05:12:36;2.33;;;1.50;;
31114;SDS011;17764;47.152;9.828;2022-12-18T05:15:22;1.97;;;1.67;;
31114;SDS011;17764;47.152;9.828;2022-12-18T05:17:48;2.23;;;1.43;;
31114;SDS011;17764;47.152;9.828;2022-12-18T05:20:14;2.20;;;1.67;;
31114;SDS011;17764;47.152;9.828;2022-12-18T05:22:41;1.80;;;1.53;;
31114;SDS011;17764;47.152;9.828;2022-12-18T05:25:07;1.77;;;1.50;;
31114;SDS011;17764;47.152;9.828;2022-12-18T05:27:33;2.17;;;1.43;;
31114;SDS011;17764;47.152;9.828;2022-12-18T05:29:59;2.30;;;1.40;;
31114;SDS011;17764;47.152;9.828;2022-12-18T05:32:25;2.60;;;1.70;;
31114;SDS011;17764;47.152;9.828;2022-12-18T05:34:51;2.10;;;1.70;;
31114;SDS011;17764;47.152;9.828;2022-12-18T05:37:17;2.23;;;1.90;;
31114;SDS011;17764;47.152;9.828;2022-12-18T05:39:43;2.57;;;1.50;;
31114;SDS011;17764;47.152;9.828;2022-12-18T05:42:09;1.73;;;1.50;;
31114;SDS011;17764;47.152;9.828;2022-12-18T05:44:35;2.77;;;1.53;;
31114;SDS011;17764;47.152;9.828;2022-12-18T05:47:01;1.73;;;1.30;;
31114;SDS011;17764;47.152;9.828;2022-12-18T05:49:27;2.00;;;1.43;;
31114;SDS011;17764;47.152;9.828;2022-12-18T05:51:53;1.87;;;1.40;;
31114;SDS011;17764;47.152;9.828;2022-12-18T05:54:19;1.40;;;1.10;;
31114;SDS011;17764;47.152;9.828;2022-12-18T05:56:45;2.23;;;1.40;;
31114;SDS011;17764;47.152;9.828;2022-12-18T05:59:11;1.73;;;1.10;;
31114;SDS011;17764;47.152;9.828;2022-12-18T06:01:37;2.30;;;1.47;;
31114;SDS011;17764;47.152;9.828;2022-12-18T06:04:03;3.83;;;1.60;;
31114;SDS011;17764;47.152;9.828;2022-12-18T06:06:29;1.87;;;1.47;;
31114;SDS011;17764;47.152;9.828;2022-12-18T06:08:55;2.10;;;1.87;;
31114;SDS011;17764;47.152;9.828;2022-12-18T06:11:23;3.07;;;1.80;;
31114;SDS011;17764;47.152;9.828;2022-12-18T06:13:50;2.70;;;1.80;;
31114;SDS011;17764;47.152;9.828;2022-12-18T06:16:17;2.17;;;1.57;;
31114;SDS011;17764;47.152;9.828;2022-12-18T06:18:43;2.03;;;1.50;;
31114;SDS011;17764;47.152;9.828;2022-12-18T06:21:09;1.60;;;1.30;;
31114;SDS011;17764;47.152;9.828;2022-12-18T06:23:35;2.03;;;1.57;;
31114;SDS011;17764;47.152;9.828;2022-12-18T06:26:06;1.87;;;1.43;;
31114;SDS011;17764;47.152;9.828;2022-12-18T06:28:32;3.07;;;1.80;;
31114;SDS011;17764;47.152;9.828;2022-12-18T06:30:58;2.70;;;1.80;;
31114;SDS011;17764;47.152;9.828;2022-12-18T06:33:27;2.87;;;1.77;;
31114;SDS011;17764;47.152;9.828;2022-12-18T06:35:54;4.47;;;2.17;;
31114;SDS011;17764;47.152;9.828;2022-12-18T06:38:20;3.40;;;2.27;;
31114;SDS011;17764;47.152;9.828;2022-12-18T06:40:46;3.23;;;2.50;;
31114;SDS011;17764;47.152;9.828;2022-12-18T06:43:12;3.23;;;2.23;;
31114;SDS011;17764;47.152;9.828;2022-12-18T06:45:39;3.73;;;2.73;;
31114;SDS011;17764;47.152;9.828;2022-12-18T06:48:05;3.67;;;2.40;;
31114;SDS011;17764;47.152;9.828;2022-12-18T06:50:31;4.83;;;2.83;;
31114;SDS011;17764;47.152;9.828;2022-12-18T06:52:57;3.30;;;2.70;;
31114;SDS011;17764;47.152;9.828;2022-12-18T06:55:23;4.53;;;2.93;;
31114;SDS011;17764;47.152;9.828;2022-12-18T06:57:49;3.87;;;2.70;;
31114;SDS011;17764;47.152;9.828;2022-12-18T07:00:15;3.67;;;2.87;;
31114;SDS011;17764;47.152;9.828;2022-12-18T07:02:42;4.80;;;2.90;;
31114;SDS011;17764;47.152;9.828;2022-12-18T07:05:08;4.60;;;2.90;;
31114;SDS011;17764;47.152;9.828;2022-12-18T07:07:34;4.60;;;2.97;;
31114;SDS011;17764;47.152;9.828;2022-12-18T07:10:00;5.97;;;3.27;;
31114;SDS011;17764;47.152;9.828;2022-12-18T07:12:27;5.87;;;3.40;;
31114;SDS011;17764;47.152;9.828;2022-12-18T07:14:53;5.30;;;3.47;;
31114;SDS011;17764;47.152;9.828;2022-12-18T07:17:19;6.47;;;4.07;;
31114;SDS011;17764;47.152;9.828;2022-12-18T07:19:45;8.03;;;4.27;;
31114;SDS011;17764;47.152;9.828;2022-12-18T07:22:11;6.07;;;4.00;;
31114;SDS011;17764;47.152;9.828;2022-12-18T07:24:37;7.23;;;3.90;;
31114;SDS011;17764;47.152;9.828;2022-12-18T07:27:03;5.70;;;4.00;;
31114;SDS011;17764;47.152;9.828;2022-12-18T07:29:29;5.40;;;3.90;;
31114;SDS011;17764;47.152;9.828;2022-12-18T07:31:55;5.40;;;3.93;;
31114;SDS011;17764;47.152;9.828;2022-12-18T07:34:21;7.67;;;3.93;;
31114;SDS011;17764;47.152;9.828;2022-12-18T07:36:47;8.27;;;4.63;;
31114;SDS011;17764;47.152;9.828;2022-12-18T07:39:13;6.27;;;4.33;;
31114;SDS011;17764;47.152;9.828;2022-12-18T07:41:40;6.87;;;4.20;;
31114;SDS011;17764;47.152;9.828;2022-12-18T07:44:10;8.23;;;4.17;;
31114;SDS011;17764;47.152;9.828;2022-12-18T07:46:36;6.67;;;4.50;;
31114;SDS011;17764;47.152;9.828;2022-12-18T07:49:02;8.20;;;4.80;;
31114;SDS011;17764;47.152;9.828;2022-12-18T07:51:28;7.10;;;5.30;;
31114;SDS011;17764;47.152;9.828;2022-12-18T07:53:54;10.13;;;5.80;;
31114;SDS011;17764;47.152;9.828;2022-12-18T07:56:21;9.63;;;5.90;;
31114;SDS011;17764;47.152;9.828;2022-12-18T07:58:47;12.77;;;6.77;;
31114;SDS011;17764;47.152;9.828;2022-12-18T08:01:13;10.70;;;6.07;;
31114;SDS011;17764;47.152;9.828;2022-12-18T08:03:39;13.30;;;8.33;;
31114;SDS011;17764;47.152;9.828;2022-12-18T08:06:07;16.27;;;9.10;;
31114;SDS011;17764;47.152;9.828;2022-12-18T08:08:33;16.87;;;9.83;;
31114;SDS011;17764;47.152;9.828;2022-12-18T08:11:00;19.40;;;9.90;;
31114;SDS011;17764;47.152;9.828;2022-12-18T08:13:26;17.30;;;10.00;;
31114;SDS011;17764;47.152;9.828;2022-12-18T08:15:56;18.17;;;9.73;;
31114;SDS011;17764;47.152;9.828;2022-12-18T08:18:23;18.37;;;9.83;;
31114;SDS011;17764;47.152;9.828;2022-12-18T08:20:49;16.13;;;9.53;;
31114;SDS011;17764;47.152;9.828;2022-12-18T08:23:15;13.30;;;8.60;;
31114;SDS011;17764;47.152;9.828;2022-12-18T08:25:41;12.90;;;8.87;;
31114;SDS011;17764;47.152;9.828;2022-12-18T08:28:08;17.03;;;8.20;;
31114;SDS011;17764;47.152;9.828;2022-12-18T08:30:35;13.43;;;8.97;;
31114;SDS011;17764;47.152;9.828;2022-12-18T08:33:01;13.83;;;9.20;;
31114;SDS011;17764;47.152;9.828;2022-12-18T08:35:27;13.50;;;8.83;;
31114;SDS011;17764;47.152;9.828;2022-12-18T08:37:53;13.50;;;8.43;;
31114;SDS011;17764;47.152;9.828;2022-12-18T08:40:19;11.10;;;7.27;;
31114;SDS011;17764;47.152;9.828;2022-12-18T08:42:45;10.43;;;6.63;;
31114;SDS011;17764;47.152;9.828;2022-12-18T08:45:29;8.90;;;7.00;;
31114;SDS011;17764;47.152;9.828;2022-12-18T08:47:55;9.70;;;7.43;;
31114;SDS011;17764;47.152;9.828;2022-12-18T08:50:21;9.97;;;7.40;;
31114;SDS011;17764;47.152;9.828;2022-12-18T08:52:47;10.33;;;7.63;;
31114;SDS011;17764;47.152;9.828;2022-12-18T08:55:13;12.27;;;8.10;;
31114;SDS011;17764;47.152;9.828;2022-12-18T08:57:39;12.17;;;8.40;;
31114;SDS011;17764;47.152;9.828;2022-12-18T09:00:05;12.97;;;8.30;;
31114;SDS011;17764;47.152;9.828;2022-12-18T09:02:32;13.33;;;8.77;;
31114;SDS011;17764;47.152;9.828;2022-12-18T09:04:58;15.23;;;9.20;;
31114;SDS011;17764;47.152;9.828;2022-12-18T09:07:24;15.80;;;10.43;;
31114;SDS011;17764;47.152;9.828;2022-12-18T09:09:50;14.93;;;9.50;;
31114;SDS011;17764;47.152;9.828;2022-12-18T09:12:18;14.30;;;7.97;;
31114;SDS011;17764;47.152;9.828;2022-12-18T09:14:44;11.07;;;7.83;;
31114;SDS011;17764;47.152;9.828;2022-12-18T09:17:10;11.33;;;7.27;;
31114;SDS011;17764;47.152;9.828;2022-12-18T09:19:36;12.17;;;8.23;;
31114;SDS011;17764;47.152;9.828;2022-12-18T09:22:02;11.70;;;7.77;;
31114;SDS011;17764;47.152;9.828;2022-12-18T09:24:28;13.13;;;7.77;;
31114;SDS011;17764;47.152;9.828;2022-12-18T09:26:54;12.53;;;7.63;;
31114;SDS011;17764;47.152;9.828;2022-12-18T09:29:21;12.77;;;7.30;;
31114;SDS011;17764;47.152;9.828;2022-12-18T09:31:49;13.07;;;8.33;;
31114;SDS011;17764;47.152;9.828;2022-12-18T09:34:17;10.00;;;7.57;;
31114;SDS011;17764;47.152;9.828;2022-12-18T09:36:47;11.47;;;7.77;;
31114;SDS011;17764;47.152;9.828;2022-12-18T09:39:13;11.07;;;7.13;;
31114;SDS011;17764;47.152;9.828;2022-12-18T09:41:53;10.00;;;7.00;;
31114;SDS011;17764;47.152;9.828;2022-12-18T09:49:32;8.83;;;6.17;;
31114;SDS011;17764;47.152;9.828;2022-12-18T09:52:02;9.20;;;6.17;;
31114;SDS011;17764;47.152;9.828;2022-12-18T09:54:44;9.83;;;7.30;;
31114;SDS011;17764;47.152;9.828;2022-12-18T09:57:13;10.87;;;7.20;;
31114;SDS011;17764;47.152;9.828;2022-12-18T09:59:39;12.27;;;7.33;;
31114;SDS011;17764;47.152;9.828;2022-12-18T10:02:20;10.77;;;6.70;;
31114;SDS011;17764;47.152;9.828;2022-12-18T10:05:29;8.97;;;5.77;;
31114;SDS011;17764;47.152;9.828;2022-12-18T10:10:07;10.70;;;6.10;;
31114;SDS011;17764;47.152;9.828;2022-12-18T10:12:40;9.13;;;5.33;;
31114;SDS011;17764;47.152;9.828;2022-12-18T10:20:24;7.93;;;4.93;;
31114;SDS011;17764;47.152;9.828;2022-12-18T10:22:55;6.93;;;4.87;;
31114;SDS011;17764;47.152;9.828;2022-12-18T10:25:24;7.20;;;4.93;;
31114;SDS011;17764;47.152;9.828;2022-12-18T10:27:53;7.07;;;5.20;;
31114;SDS011;17764;47.152;9.828;2022-12-18T10:30:21;7.97;;;5.60;;
31114;SDS011;17764;47.152;9.828;2022-12-18T10:32:49;8.53;;;5.30;;
31114;SDS011;17764;47.152;9.828;2022-12-18T10:35:22;8.77;;;5.93;;
31114;SDS011;17764;47.152;9.828;2022-12-18T10:38:01;8.00;;;5.83;;
31114;SDS011;17764;47.152;9.828;2022-12-18T10:40:28;6.67;;;5.10;;
31114;SDS011;17764;47.152;9.828;2022-12-18T10:43:12;10.20;;;5.80;;
31114;SDS011;17764;47.152;9.828;2022-12-18T10:45:39;9.33;;;5.93;;
31114;SDS011;17764;47.152;9.828;2022-12-18T10:48:17;11.17;;;6.13;;
31114;SDS011;17764;47.152;9.828;2022-12-18T10:50:45;12.43;;;7.70;;
31114;SDS011;17764;47.152;9.828;2022-12-18T10:53:13;11.77;;;8.33;;
31114;SDS011;17764;47.152;9.828;2022-12-18T10:55:44;14.23;;;8.37;;
31114;SDS011;17764;47.152;9.828;2022-12-18T10:58:26;12.83;;;8.97;;
31114;SDS011;17764;47.152;9.828;2022-12-18T11:03:39;10.93;;;7.27;;
31114;SDS011;17764;47.152;9.828;2022-12-18T11:08:34;11.13;;;6.87;;
31114;SDS011;17764;47.152;9.828;2022-12-18T11:11:00;10.13;;;7.43;;
31114;SDS011;17764;47.152;9.828;2022-12-18T11:13:27;11.87;;;7.43;;
31114;SDS011;17764;47.152;9.828;2022-12-18T11:15:54;11.93;;;7.80;;
31114;SDS011;17764;47.152;9.828;2022-12-18T11:20:50;12.50;;;8.23;;
31114;SDS011;17764;47.152;9.828;2022-12-18T11:23:16;13.70;;;9.53;;
31114;SDS011;17764;47.152;9.828;2022-12-18T11:25:42;14.37;;;8.80;;
31114;SDS011;17764;47.152;9.828;2022-12-18T11:31:22;14.67;;;9.20;;
31114;SDS011;17764;47.152;9.828;2022-12-18T11:33:51;12.90;;;8.23;;
31114;SDS011;17764;47.152;9.828;2022-12-18T11:36:18;14.30;;;9.07;;
31114;SDS011;17764;47.152;9.828;2022-12-18T11:38:44;14.90;;;10.97;;
31114;SDS011;17764;47.152;9.828;2022-12-18T11:43:41;12.77;;;9.53;;
31114;SDS011;17764;47.152;9.828;2022-12-18T11:46:17;14.13;;;9.33;;
31114;SDS011;17764;47.152;9.828;2022-12-18T11:48:45;11.80;;;9.00;;
31114;SDS011;17764;47.152;9.828;2022-12-18T11:51:31;10.57;;;7.97;;
31114;SDS011;17764;47.152;9.828;2022-12-18T11:53:59;10.83;;;7.37;;
31114;SDS011;17764;47.152;9.828;2022-12-18T11:56:43;11.17;;;7.50;;
31114;SDS011;17764;47.152;9.828;2022-12-18T12:01:40;7.97;;;6.07;;
31114;SDS011;17764;47.152;9.828;2022-12-18T12:04:15;8.53;;;5.90;;
31114;SDS011;17764;47.152;9.828;2022-12-18T12:06:49;7.33;;;5.77;;
31114;SDS011;17764;47.152;9.828;2022-12-18T12:17:16;17.87;;;11.57;;
31114;SDS011;17764;47.152;9.828;2022-12-18T12:19:49;17.90;;;13.30;;
31114;SDS011;17764;47.152;9.828;2022-12-18T12:27:20;13.30;;;9.70;;
31114;SDS011;17764;47.152;9.828;2022-12-18T12:29:58;12.80;;;9.13;;
31114;SDS011;17764;47.152;9.828;2022-12-18T12:39:59;13.80;;;9.10;;
31114;SDS011;17764;47.152;9.828;2022-12-18T12:45:14;12.70;;;9.23;;
31114;SDS011;17764;47.152;9.828;2022-12-18T12:47:42;16.70;;;11.73;;
31114;SDS011;17764;47.152;9.828;2022-12-18T12:50:16;17.97;;;12.40;;
31114;SDS011;17764;47.152;9.828;2022-12-18T12:52:51;19.23;;;12.83;;
31114;SDS011;17764;47.152;9.828;2022-12-18T12:55:19;18.80;;;13.00;;
31114;SDS011;17764;47.152;9.828;2022-12-18T12:57:53;20.67;;;15.57;;
31114;SDS011;17764;47.152;9.828;2022-12-18T13:00:20;21.70;;;15.67;;
31114;SDS011;17764;47.152;9.828;2022-12-18T13:05:34;19.20;;;13.30;;
31114;SDS011;17764;47.152;9.828;2022-12-18T13:08:12;17.93;;;12.97;;
31114;SDS011;17764;47.152;9.828;2022-12-18T13:10:47;19.60;;;13.67;;
31114;SDS011;17764;47.152;9.828;2022-12-18T13:13:13;16.97;;;12.33;;
31114;SDS011;17764;47.152;9.828;2022-12-18T13:20:37;13.73;;;9.83;;
31114;SDS011;17764;47.152;9.828;2022-12-18T13:25:49;15.03;;;11.17;;
31114;SDS011;17764;47.152;9.828;2022-12-18T13:28:16;17.73;;;12.37;;
31114;SDS011;17764;47.152;9.828;2022-12-18T13:30:44;18.77;;;12.73;;
31114;SDS011;17764;47.152;9.828;2022-12-18T13:35:40;17.57;;;11.70;;
31114;SDS011;17764;47.152;9.828;2022-12-18T13:38:19;16.57;;;11.57;;
31114;SDS011;17764;47.152;9.828;2022-12-18T13:43:26;15.20;;;10.77;;
31114;SDS011;17764;47.152;9.828;2022-12-18T13:48:41;17.30;;;12.27;;
31114;SDS011;17764;47.152;9.828;2022-12-18T13:51:15;15.93;;;11.73;;
31114;SDS011;17764;47.152;9.828;2022-12-18T13:53:43;16.23;;;11.10;;
31114;SDS011;17764;47.152;9.828;2022-12-18T13:56:15;16.93;;;11.53;;
31114;SDS011;17764;47.152;9.828;2022-12-18T13:58:41;17.37;;;11.80;;
31114;SDS011;17764;47.152;9.828;2022-12-18T14:01:20;18.60;;;12.77;;
31114;SDS011;17764;47.152;9.828;2022-12-18T14:03:47;19.10;;;13.07;;
31114;SDS011;17764;47.152;9.828;2022-12-18T14:06:13;17.97;;;11.93;;
31114;SDS011;17764;47.152;9.828;2022-12-18T14:08:39;16.77;;;11.40;;
31114;SDS011;17764;47.152;9.828;2022-12-18T14:11:06;17.10;;;11.03;;
31114;SDS011;17764;47.152;9.828;2022-12-18T14:13:35;15.17;;;10.50;;
31114;SDS011;17764;47.152;9.828;2022-12-18T14:16:03;15.00;;;11.00;;
31114;SDS011;17764;47.152;9.828;2022-12-18T14:21:02;14.53;;;9.77;;
31114;SDS011;17764;47.152;9.828;2022-12-18T14:25:58;18.40;;;11.80;;
31114;SDS011;17764;47.152;9.828;2022-12-18T14:28:24;18.87;;;12.07;;
31114;SDS011;17764;47.152;9.828;2022-12-18T14:30:51;19.57;;;13.03;;
31114;SDS011;17764;47.152;9.828;2022-12-18T14:33:21;21.20;;;13.40;;
31114;SDS011;17764;47.152;9.828;2022-12-18T14:36:01;21.23;;;13.30;;
31114;SDS011;17764;47.152;9.828;2022-12-18T14:38:30;19.07;;;12.83;;
31114;SDS011;17764;47.152;9.828;2022-12-18T14:40:58;21.77;;;13.50;;
31114;SDS011;17764;47.152;9.828;2022-12-18T14:43:24;20.33;;;13.87;;
31114;SDS011;17764;47.152;9.828;2022-12-18T14:45:51;19.20;;;12.97;;
31114;SDS011;17764;47.152;9.828;2022-12-18T14:50:53;17.93;;;12.43;;
31114;SDS011;17764;47.152;9.828;2022-12-18T14:53:21;20.47;;;12.83;;
31114;SDS011;17764;47.152;9.828;2022-12-18T14:55:48;18.53;;;11.20;;
31114;SDS011;17764;47.152;9.828;2022-12-18T14:58:15;17.20;;;11.00;;
31114;SDS011;17764;47.152;9.828;2022-12-18T15:00:41;16.30;;;10.83;;
31114;SDS011;17764;47.152;9.828;2022-12-18T15:03:07;17.63;;;11.37;;
31114;SDS011;17764;47.152;9.828;2022-12-18T15:05:34;14.80;;;10.20;;
31114;SDS011;17764;47.152;9.828;2022-12-18T15:08:01;15.60;;;10.47;;
31114;SDS011;17764;47.152;9.828;2022-12-18T15:10:29;14.47;;;10.10;;
31114;SDS011;17764;47.152;9.828;2022-12-18T15:20:47;16.10;;;11.27;;
31114;SDS011;17764;47.152;9.828;2022-12-18T15:25:40;16.63;;;11.30;;
31114;SDS011;17764;47.152;9.828;2022-12-18T15:28:22;17.47;;;12.07;;
31114;SDS011;17764;47.152;9.828;2022-12-18T15:30:59;17.13;;;10.93;;
31114;SDS011;17764;47.152;9.828;2022-12-18T15:33:27;17.47;;;10.13;;
31114;SDS011;17764;47.152;9.828;2022-12-18T15:36:00;18.40;;;11.00;;
31114;SDS011;17764;47.152;9.828;2022-12-18T15:38:26;17.33;;;10.90;;
31114;SDS011;17764;47.152;9.828;2022-12-18T15:40:53;14.73;;;10.37;;
31114;SDS011;17764;47.152;9.828;2022-12-18T15:43:23;15.80;;;9.90;;
31114;SDS011;17764;47.152;9.828;2022-12-18T15:45:58;17.03;;;10.80;;
31114;SDS011;17764;47.152;9.828;2022-12-18T15:48:24;17.87;;;10.93;;
31114;SDS011;17764;47.152;9.828;2022-12-18T15:50:50;19.03;;;10.30;;
31114;SDS011;17764;47.152;9.828;2022-12-18T15:53:17;14.37;;;9.63;;
31114;SDS011;17764;47.152;9.828;2022-12-18T15:55:44;17.43;;;10.60;;
31114;SDS011;17764;47.152;9.828;2022-12-18T15:58:29;15.07;;;10.43;;
31114;SDS011;17764;47.152;9.828;2022-12-18T16:00:56;13.33;;;10.00;;
31114;SDS011;17764;47.152;9.828;2022-12-18T16:03:24;18.10;;;11.13;;
31114;SDS011;17764;47.152;9.828;2022-12-18T16:05:50;17.47;;;12.47;;
31114;SDS011;17764;47.152;9.828;2022-12-18T16:08:16;18.33;;;12.33;;
31114;SDS011;17764;47.152;9.828;2022-12-18T16:10:42;21.27;;;12.47;;
31114;SDS011;17764;47.152;9.828;2022-12-18T16:13:09;19.47;;;13.20;;
31114;SDS011;17764;47.152;9.828;2022-12-18T16:15:36;18.17;;;12.93;;
31114;SDS011;17764;47.152;9.828;2022-12-18T16:18:02;23.37;;;12.97;;
31114;SDS011;17764;47.152;9.828;2022-12-18T16:20:28;21.77;;;13.47;;
31114;SDS011;17764;47.152;9.828;2022-12-18T16:22:54;23.80;;;14.03;;
31114;SDS011;17764;47.152;9.828;2022-12-18T16:25:21;25.37;;;14.10;;
31114;SDS011;17764;47.152;9.828;2022-12-18T16:27:47;22.60;;;13.77;;
31114;SDS011;17764;47.152;9.828;2022-12-18T16:30:17;20.70;;;12.60;;